createdAt,value
2022-08-07T00:02:40.730Z,82.94
2022-08-07T00:05:31.777Z,83.12
2022-08-07T00:08:23.840Z,82.99
2022-08-07T00:11:11.435Z,83.94
2022-08-07T00:13:59.462Z,83.60
2022-08-07T00:16:47.064Z,80.61
2022-08-07T00:20:01.546Z,79.47
2022-08-07T00:22:42.753Z,82.99
2022-08-07T00:25:41.488Z,83.02
2022-08-07T00:28:33.164Z,81.20
2022-08-07T00:31:21.823Z,82.37
2022-08-07T00:34:09.825Z,83.81
2022-08-07T00:36:57.563Z,82.03
2022-08-07T00:39:45.431Z,84.02
2022-08-07T00:42:42.289Z,81.88
2022-08-07T00:45:30.232Z,83.67
2022-08-07T00:48:19.128Z,82.86
2022-08-07T00:51:12.740Z,83.17
2022-08-07T00:54:00.379Z,83.27
2022-08-07T00:56:49.617Z,84.19
2022-08-07T00:59:37.613Z,84.22
2022-08-07T01:02:29.334Z,84.03
2022-08-07T01:05:19.002Z,84.90
2022-08-07T01:08:09.123Z,83.70
2022-08-07T01:10:56.817Z,84.14
2022-08-07T01:13:55.699Z,80.97
2022-08-07T01:16:47.372Z,80.59
2022-08-07T01:19:38.450Z,82.61
2022-08-07T01:22:29.221Z,81.91
2022-08-07T01:25:53.745Z,82.49
2022-08-07T01:28:24.897Z,83.33
2022-08-07T01:31:15.522Z,84.08
2022-08-07T01:34:05.555Z,82.76
2022-08-07T01:36:57.954Z,82.96
2022-08-07T01:39:46.887Z,82.62
2022-08-07T01:42:40.292Z,82.00
2022-08-07T01:45:42.328Z,83.88
2022-08-07T01:48:34.466Z,81.65
2022-08-07T01:52:02.129Z,81.72
2022-08-07T01:54:32.897Z,80.61
2022-08-07T01:57:25.149Z,81.36
2022-08-07T02:00:13.719Z,81.62
2022-08-07T02:03:19.334Z,82.22
2022-08-07T02:06:30.971Z,83.70
2022-08-07T02:09:33.916Z,82.50
2022-08-07T02:12:30.985Z,83.92
2022-08-07T02:15:18.790Z,83.14
2022-08-07T02:18:06.626Z,81.44
2022-08-07T02:20:57.364Z,83.40
2022-08-07T02:23:45.181Z,81.16
2022-08-07T02:26:34.658Z,80.38
2022-08-07T02:29:23.867Z,81.11
2022-08-07T02:32:11.463Z,81.99
2022-08-07T02:35:00.997Z,82.04
2022-08-07T02:37:48.722Z,83.11
2022-08-07T02:40:36.396Z,83.78
2022-08-07T02:43:24.162Z,82.05
2022-08-07T02:46:14.469Z,82.80
2022-08-07T02:49:03.278Z,80.92
2022-08-07T02:51:52.849Z,79.73
2022-08-07T02:54:41.194Z,79.18
2022-08-07T02:57:31.185Z,80.14
2022-08-07T03:00:22.665Z,81.47
2022-08-07T03:03:13.520Z,79.63
2022-08-07T03:06:16.482Z,79.77
2022-08-07T03:09:13.280Z,78.25
2022-08-07T03:12:02.874Z,76.39
2022-08-07T03:14:52.597Z,76.73
2022-08-07T03:17:52.875Z,76.19
2022-08-07T03:20:41.739Z,77.58
2022-08-07T03:23:33.796Z,77.71
2022-08-07T03:26:23.492Z,78.04
2022-08-07T03:29:14.671Z,78.56
2022-08-07T03:32:02.539Z,79.91
2022-08-07T03:35:16.929Z,80.58
2022-08-07T03:37:58.641Z,80.55
2022-08-07T03:40:46.382Z,82.05
2022-08-07T03:43:44.151Z,80.83
2022-08-07T03:47:13.481Z,82.87
2022-08-07T03:49:53.658Z,80.57
2022-08-07T03:52:41.351Z,78.39
2022-08-07T03:55:52.796Z,77.51
2022-08-07T03:59:08.746Z,78.31
2022-08-07T04:01:45.413Z,78.22
2022-08-07T04:04:33.404Z,77.91
2022-08-07T04:07:22.916Z,78.06
2022-08-07T04:10:15.572Z,76.82
2022-08-07T04:13:27.785Z,78.10
2022-08-07T04:16:15.529Z,78.64
2022-08-07T04:19:18.073Z,79.82
2022-08-07T04:22:12.207Z,80.88
2022-08-07T04:25:02.310Z,81.17
2022-08-07T04:27:59.035Z,80.68
2022-08-07T04:30:55.339Z,83.15
2022-08-07T04:33:45.025Z,82.30
2022-08-07T04:36:32.651Z,81.63
2022-08-07T04:39:25.415Z,80.82
2022-08-07T04:42:13.495Z,79.43
2022-08-07T04:45:03.227Z,80.48
2022-08-07T04:47:56.885Z,81.26
2022-08-07T04:50:52.910Z,81.35
2022-08-07T04:54:05.746Z,83.72
2022-08-07T04:58:10.351Z,84.14
2022-08-07T05:00:11.363Z,81.03
2022-08-07T05:03:02.318Z,83.55
2022-08-07T05:06:16.307Z,82.74
2022-08-07T05:09:07.516Z,82.23
2022-08-07T05:11:58.576Z,81.64
2022-08-07T05:14:53.681Z,81.02
2022-08-07T05:17:50.970Z,80.73
2022-08-07T05:20:40.766Z,81.24
2022-08-07T05:23:31.003Z,81.40
2022-08-07T05:26:23.627Z,83.18
2022-08-07T05:29:11.463Z,80.71
2022-08-07T05:32:01.942Z,81.74
2022-08-07T05:34:51.094Z,79.86
2022-08-07T05:37:40.853Z,78.93
2022-08-07T05:40:30.046Z,79.07
2022-08-07T05:43:49.509Z,78.01
2022-08-07T05:46:29.510Z,77.82
2022-08-07T05:49:17.292Z,77.47
2022-08-07T05:52:04.957Z,78.26
2022-08-07T05:54:55.352Z,78.74
2022-08-07T05:57:44.892Z,79.74
2022-08-07T06:00:32.682Z,78.22
2022-08-07T06:03:20.289Z,77.31
2022-08-07T06:06:09.930Z,79.23
2022-08-07T06:09:05.270Z,78.60
2022-08-07T06:11:52.944Z,77.41
2022-08-07T06:14:40.542Z,78.99
2022-08-07T06:17:37.392Z,80.31
2022-08-07T06:20:49.723Z,78.48
2022-08-07T06:24:37.160Z,79.08
2022-08-07T06:26:41.194Z,76.65
2022-08-07T06:29:29.137Z,80.65
2022-08-07T06:32:16.971Z,82.37
2022-08-07T06:35:10.622Z,83.33
2022-08-07T06:38:05.727Z,82.71
2022-08-07T06:40:55.917Z,81.98
2022-08-07T06:43:46.281Z,81.43
2022-08-07T06:46:53.734Z,81.92
2022-08-07T06:49:58.413Z,84.45
2022-08-07T06:52:46.565Z,85.12
2022-08-07T06:56:00.318Z,85.55
2022-08-07T07:00:14.773Z,85.18
2022-08-07T07:01:55.832Z,86.26
2022-08-07T07:04:54.929Z,86.73
2022-08-07T07:08:00.239Z,87.60
2022-08-07T07:10:56.587Z,86.31
2022-08-07T07:13:57.632Z,86.85
2022-08-07T07:16:51.133Z,86.17
2022-08-07T07:19:56.404Z,85.93
2022-08-07T07:24:09.263Z,84.59
2022-08-07T07:26:32.120Z,83.86
2022-08-07T07:29:56.517Z,83.10
2022-08-07T07:32:10.787Z,83.12
2022-08-07T07:34:58.419Z,81.71
2022-08-07T07:37:56.022Z,82.35
2022-08-07T07:40:46.910Z,82.07
2022-08-07T07:44:13.969Z,82.42
2022-08-07T07:46:55.309Z,82.98
2022-08-07T07:50:36.038Z,81.94
2022-08-07T07:52:55.697Z,81.86
2022-08-07T07:55:45.719Z,82.04
2022-08-07T07:58:45.216Z,83.23
2022-08-07T08:02:04.781Z,82.25
2022-08-07T08:04:42.562Z,81.02
2022-08-07T08:07:35.876Z,82.02
2022-08-07T08:10:35.637Z,82.17
2022-08-07T08:13:26.485Z,80.97
2022-08-07T08:16:24.981Z,79.10
2022-08-07T08:19:17.673Z,77.93
2022-08-07T08:22:17.117Z,80.50
2022-08-07T08:25:24.907Z,79.64
2022-08-07T08:28:12.603Z,79.19
2022-08-07T08:31:05.133Z,77.95
2022-08-07T08:33:55.341Z,78.75
2022-08-07T08:36:46.329Z,80.13
2022-08-07T08:39:39.777Z,78.54
2022-08-07T08:42:41.605Z,77.66
2022-08-07T08:45:59.607Z,78.29
2022-08-07T08:48:38.712Z,74.56
2022-08-07T08:52:00.974Z,73.83
2022-08-07T08:54:35.243Z,74.57
2022-08-07T08:57:26.690Z,76.39
2022-08-07T09:00:18.161Z,74.70
2022-08-07T09:03:07.514Z,75.07
2022-08-07T09:05:55.831Z,75.06
2022-08-07T09:08:44.178Z,73.76
2022-08-07T09:11:43.484Z,72.16
2022-08-07T09:14:42.130Z,72.43
2022-08-07T09:17:58.690Z,73.33
2022-08-07T09:20:58.668Z,73.02
2022-08-07T09:24:31.147Z,71.68
2022-08-07T09:26:56.969Z,72.41
2022-08-07T09:30:05.933Z,71.26
2022-08-07T09:32:52.345Z,71.11
2022-08-07T09:36:05.469Z,70.54
2022-08-07T09:38:49.978Z,68.75
2022-08-07T09:41:43.249Z,67.87
2022-08-07T09:44:58.358Z,67.63
2022-08-07T09:48:00.341Z,67.94
2022-08-07T09:50:46.217Z,67.13
2022-08-07T09:53:41.215Z,67.28
2022-08-07T09:56:37.495Z,67.11
2022-08-07T09:59:35.639Z,67.13
2022-08-07T10:02:32.469Z,64.46
2022-08-07T10:06:01.236Z,65.74
2022-08-07T10:08:29.634Z,66.02
2022-08-07T10:12:02.287Z,65.11
2022-08-07T10:14:31.108Z,64.33
2022-08-07T10:17:18.980Z,66.38
2022-08-07T10:20:06.634Z,66.47
2022-08-07T10:23:00.672Z,65.23
2022-08-07T10:25:51.927Z,66.00
2022-08-07T10:28:40.738Z,62.76
2022-08-07T10:31:31.499Z,64.70
2022-08-07T10:34:27.182Z,61.71
2022-08-07T10:37:26.121Z,62.27
2022-08-07T10:40:30.369Z,61.96
2022-08-07T10:43:19.487Z,60.61
2022-08-07T10:46:22.184Z,62.32
2022-08-07T10:49:09.790Z,63.08
2022-08-07T10:52:12.924Z,61.97
2022-08-07T10:55:21.019Z,61.04
2022-08-07T10:58:09.069Z,63.33
2022-08-07T11:00:57.940Z,63.70
2022-08-07T11:03:52.491Z,64.18
2022-08-07T11:06:44.579Z,64.60
2022-08-07T11:10:07.924Z,63.72
2022-08-07T11:12:39.786Z,65.50
2022-08-07T11:15:33.037Z,63.45
2022-08-07T11:18:20.651Z,63.39
2022-08-07T11:21:12.047Z,62.51
2022-08-07T11:24:01.855Z,63.86
2022-08-07T11:26:50.510Z,63.11
2022-08-07T11:29:42.214Z,63.25
2022-08-07T11:32:31.886Z,63.20
2022-08-07T11:35:25.295Z,64.11
2022-08-07T11:38:17.336Z,64.49
2022-08-07T11:41:05.595Z,64.61
2022-08-07T11:44:10.780Z,60.88
2022-08-07T11:47:00.483Z,60.60
2022-08-07T11:50:25.223Z,61.58
2022-08-07T11:52:55.728Z,61.69
2022-08-07T11:56:25.083Z,61.91
2022-08-07T11:58:50.881Z,61.93
2022-08-07T12:02:01.190Z,61.82
2022-08-07T12:04:46.018Z,60.93
2022-08-07T12:07:39.870Z,60.88
2022-08-07T12:10:27.738Z,60.38
2022-08-07T12:13:18.621Z,60.73
2022-08-07T12:16:30.651Z,60.49
2022-08-07T12:19:21.765Z,60.79
2022-08-07T12:22:39.327Z,61.28
2022-08-07T12:26:00.242Z,60.58
2022-08-07T12:28:30.864Z,61.48
2022-08-07T12:31:22.373Z,58.93
2022-08-07T12:34:11.376Z,58.48
2022-08-07T12:36:58.996Z,60.28
2022-08-07T12:39:50.907Z,60.79
2022-08-07T12:42:39.015Z,60.37
2022-08-07T12:45:42.667Z,60.60
2022-08-07T12:48:51.766Z,61.84
2022-08-07T12:51:51.364Z,61.26
2022-08-07T12:54:55.025Z,60.33
2022-08-07T12:58:00.397Z,60.43
2022-08-07T13:00:50.657Z,61.16
2022-08-07T13:03:55.024Z,60.73
2022-08-07T13:07:00.037Z,58.70
2022-08-07T13:10:19.806Z,58.68
2022-08-07T13:12:56.644Z,59.82
2022-08-07T13:15:44.895Z,60.01
2022-08-07T13:18:32.523Z,60.36
2022-08-07T13:21:37.174Z,61.12
2022-08-07T13:24:30.494Z,60.46
2022-08-07T13:27:20.672Z,59.75
2022-08-07T13:30:08.673Z,58.83
2022-08-07T13:34:14.789Z,58.26
2022-08-07T13:36:17.810Z,59.82
2022-08-07T13:39:12.876Z,58.89
2022-08-07T13:42:13.190Z,58.20
2022-08-07T13:45:21.069Z,58.13
2022-08-07T13:48:10.510Z,56.84
2022-08-07T13:51:27.637Z,57.96
2022-08-07T13:54:22.420Z,57.00
2022-08-07T13:57:10.264Z,58.32
2022-08-07T14:00:02.048Z,58.91
2022-08-07T14:02:53.981Z,57.21
2022-08-07T14:05:41.724Z,57.78
2022-08-07T14:08:29.499Z,57.09
2022-08-07T14:11:17.408Z,56.44
2022-08-07T14:14:05.254Z,57.15
2022-08-07T14:16:53.488Z,57.62
2022-08-07T14:20:42.162Z,56.61
2022-08-07T14:22:49.799Z,57.73
2022-08-07T14:25:39.692Z,56.28
2022-08-07T14:28:57.290Z,57.09
2022-08-07T14:31:43.459Z,58.30
2022-08-07T14:34:45.910Z,56.97
2022-08-07T14:37:39.284Z,58.41
2022-08-07T14:40:29.344Z,57.76
2022-08-07T14:46:31.227Z,55.51
2022-08-07T14:49:56.686Z,56.87
2022-08-07T14:52:28.730Z,56.20
2022-08-07T14:55:17.688Z,56.55
2022-08-07T14:58:05.729Z,56.97
2022-08-07T15:00:53.332Z,56.37
2022-08-07T15:03:52.767Z,55.83
2022-08-07T15:06:40.899Z,57.65
2022-08-07T15:09:57.490Z,55.91
2022-08-07T15:12:43.131Z,57.13
2022-08-07T15:15:42.832Z,56.15
2022-08-07T15:18:34.847Z,56.82
2022-08-07T15:21:58.459Z,57.08
2022-08-07T15:27:38.766Z,56.30
2022-08-07T15:31:04.905Z,55.36
2022-08-07T15:33:53.571Z,55.19
2022-08-07T15:39:57.825Z,57.33
2022-08-07T15:42:47.972Z,56.76
2022-08-07T15:45:56.613Z,55.34
2022-08-07T15:49:12.010Z,56.24
2022-08-07T15:54:45.602Z,54.59
2022-08-07T15:57:47.347Z,54.61
2022-08-07T16:00:36.600Z,53.39
2022-08-07T16:03:46.294Z,52.97
2022-08-07T16:06:33.159Z,53.13
2022-08-07T16:09:22.804Z,53.44
2022-08-07T16:12:12.127Z,54.64
2022-08-07T16:14:41.656Z,54.50
2022-08-07T16:17:15.077Z,54.71
2022-08-07T16:19:58.396Z,53.84
2022-08-07T16:22:33.674Z,53.75
2022-08-07T16:25:07.491Z,53.54
2022-08-07T16:27:39.979Z,54.22
2022-08-07T16:30:30.057Z,55.08
2022-08-07T16:32:56.067Z,54.30
2022-08-07T16:35:51.857Z,54.52
2022-08-07T16:38:11.370Z,56.18
2022-08-07T16:40:57.031Z,55.42
2022-08-07T16:44:02.348Z,54.75
2022-08-07T16:50:26.731Z,54.80
2022-08-07T16:51:57.570Z,55.17
2022-08-07T16:54:35.197Z,55.52
2022-08-07T16:57:06.488Z,55.13
2022-08-07T16:59:47.127Z,54.64
2022-08-07T17:02:14.745Z,55.66
2022-08-07T17:05:01.955Z,55.55
2022-08-07T17:07:55.760Z,54.54
2022-08-07T17:10:30.099Z,54.75
2022-08-07T17:13:01.059Z,55.00
2022-08-07T17:15:44.289Z,55.24
2022-08-07T17:18:17.998Z,55.21
2022-08-07T17:20:46.650Z,54.33
2022-08-07T17:23:14.093Z,54.84
2022-08-07T17:25:51.538Z,54.83
2022-08-07T17:28:20.069Z,55.43
2022-08-07T17:30:57.760Z,55.16
2022-08-07T17:34:08.989Z,55.64
2022-08-07T17:36:13.714Z,56.37
2022-08-07T17:38:50.339Z,55.80
2022-08-07T17:42:04.984Z,55.90
2022-08-07T17:44:06.493Z,55.35
2022-08-07T17:46:40.305Z,55.97
2022-08-07T17:49:09.209Z,55.55
2022-08-07T17:51:49.320Z,56.25
2022-08-07T17:54:29.903Z,55.91
2022-08-07T17:57:18.898Z,55.75
2022-08-07T17:59:46.773Z,56.23
2022-08-07T18:02:27.195Z,56.12
2022-08-07T18:04:54.600Z,56.16
2022-08-07T18:07:23.970Z,56.51
2022-08-07T18:10:06.092Z,56.51
2022-08-07T18:12:35.688Z,56.01
2022-08-07T18:15:08.834Z,56.78
2022-08-07T18:18:45.046Z,56.40
2022-08-07T18:21:10.001Z,55.93
2022-08-07T18:23:42.215Z,56.20
2022-08-07T18:26:01.218Z,57.28
2022-08-07T18:28:35.349Z,56.94
2022-08-07T18:31:03.517Z,56.75
2022-08-07T18:33:30.784Z,56.46
2022-08-07T18:35:58.433Z,56.22
2022-08-07T18:38:57.298Z,56.52
2022-08-07T18:41:20.482Z,57.31
2022-08-07T18:43:49.976Z,57.52
2022-08-07T18:46:26.966Z,57.76
2022-08-07T18:50:35.354Z,57.31
2022-08-07T18:52:34.873Z,57.26
2022-08-07T18:54:36.023Z,56.98
2022-08-07T18:57:30.413Z,57.31
2022-08-07T19:00:33.221Z,56.41
2022-08-07T19:02:59.018Z,56.43
2022-08-07T19:05:27.062Z,56.25
2022-08-07T19:08:15.972Z,56.43
2022-08-07T19:10:51.803Z,55.86
2022-08-07T19:13:21.968Z,56.50
2022-08-07T19:16:02.860Z,57.47
2022-08-07T19:18:44.645Z,58.11
2022-08-07T19:21:44.010Z,58.14
2022-08-07T19:24:01.964Z,57.53
2022-08-07T19:26:39.624Z,59.16
2022-08-07T19:31:02.235Z,59.30
2022-08-07T19:32:17.717Z,59.69
2022-08-07T19:34:53.992Z,59.46
2022-08-07T19:37:23.004Z,59.50
2022-08-07T19:39:57.856Z,59.56
2022-08-07T19:42:31.988Z,59.80
2022-08-07T19:45:09.962Z,60.60
2022-08-07T19:47:39.256Z,60.21
2022-08-07T19:50:41.499Z,60.59
2022-08-07T19:53:01.086Z,60.96
2022-08-07T19:55:57.461Z,61.48
2022-08-07T19:58:28.332Z,62.06
2022-08-07T20:00:57.852Z,61.86
2022-08-07T20:03:35.318Z,63.42
2022-08-07T20:06:04.425Z,64.81
2022-08-07T20:08:32.805Z,66.16
2022-08-07T20:11:02.116Z,67.19
2022-08-07T20:13:32.364Z,66.97
2022-08-07T20:15:59.671Z,67.82
2022-08-07T20:18:32.669Z,70.05
2022-08-07T20:21:00.779Z,71.15
2022-08-07T20:23:42.993Z,72.35
2022-08-07T20:26:10.774Z,70.98
2022-08-07T20:28:38.412Z,72.05
2022-08-07T20:31:06.413Z,72.46
2022-08-07T20:33:37.553Z,73.39
2022-08-07T20:36:05.664Z,72.38
2022-08-07T20:38:33.244Z,72.42
2022-08-07T20:41:00.562Z,72.54
2022-08-07T20:43:31.271Z,72.63
2022-08-07T20:46:27.636Z,72.83
2022-08-07T20:49:53.958Z,73.51
2022-08-07T20:51:36.056Z,73.85
2022-08-07T20:54:09.402Z,74.36
2022-08-07T20:56:41.587Z,74.20
2022-08-07T21:00:04.291Z,75.28
2022-08-07T21:02:00.823Z,76.45
2022-08-07T21:04:28.323Z,75.98
2022-08-07T21:06:56.876Z,76.47
2022-08-07T21:09:27.847Z,78.03
2022-08-07T21:11:55.233Z,78.21
2022-08-07T21:14:32.515Z,79.17
2022-08-07T21:18:02.188Z,80.09
2022-08-07T21:19:51.453Z,79.42
2022-08-07T21:22:33.262Z,79.32
2022-08-07T21:25:00.917Z,78.19
2022-08-07T21:27:39.816Z,77.38
2022-08-07T21:30:07.708Z,78.67
2022-08-07T21:32:47.459Z,78.73
2022-08-07T21:35:17.012Z,78.69
2022-08-07T21:38:02.375Z,78.04
2022-08-07T21:40:35.726Z,78.29
2022-08-07T21:43:03.591Z,78.13
2022-08-07T21:46:08.492Z,78.04
2022-08-07T21:48:33.318Z,79.49
2022-08-07T21:51:02.717Z,79.29
2022-08-07T21:53:31.380Z,79.29
2022-08-07T21:56:04.243Z,78.74
2022-08-07T21:58:32.817Z,79.27
2022-08-07T22:01:00.295Z,79.36
2022-08-07T22:03:30.906Z,79.08
2022-08-07T22:05:59.077Z,79.85
2022-08-07T22:08:26.381Z,81.03
2022-08-07T22:10:55.352Z,81.33
2022-08-07T22:13:24.618Z,81.26
2022-08-07T22:16:45.608Z,82.68
2022-08-07T22:18:57.117Z,81.92
2022-08-07T22:21:24.834Z,80.18
2022-08-07T22:24:12.065Z,79.77
2022-08-07T22:26:44.438Z,79.95
2022-08-07T22:29:13.998Z,80.65
2022-08-07T22:31:56.421Z,81.03
2022-08-07T22:34:29.010Z,79.99
2022-08-07T22:36:58.920Z,80.69
2022-08-07T22:39:26.285Z,80.56
2022-08-07T22:42:04.079Z,81.71
2022-08-07T22:44:58.328Z,81.59
2022-08-07T22:47:26.874Z,81.53
2022-08-07T22:52:36.857Z,82.79
2022-08-07T22:55:17.501Z,81.04
2022-08-07T22:57:50.082Z,81.19
2022-08-07T23:00:17.420Z,80.72
2022-08-07T23:02:44.801Z,80.88
2022-08-07T23:06:08.270Z,81.12
2022-08-07T23:07:59.368Z,80.10
2022-08-07T23:10:37.380Z,81.93
2022-08-07T23:13:07.203Z,80.88
2022-08-07T23:16:06.273Z,80.66
2022-08-07T23:18:22.380Z,81.01
2022-08-07T23:20:53.799Z,80.45
2022-08-07T23:24:05.680Z,80.92
2022-08-07T23:26:09.185Z,81.07
2022-08-07T23:28:36.457Z,81.18
2022-08-07T23:31:13.902Z,81.64
2022-08-07T23:34:34.064Z,81.39
2022-08-07T23:36:33.533Z,80.62
2022-08-07T23:39:01.735Z,80.41
2022-08-07T23:42:01.638Z,79.49
2022-08-07T23:44:29.460Z,81.55
2022-08-07T23:46:57.220Z,80.57
2022-08-07T23:49:24.820Z,79.89
2022-08-07T23:53:06.607Z,79.69
2022-08-07T23:54:57.103Z,80.50
2022-08-07T23:57:24.412Z,81.76
